createdAt,value
2023-02-23T00:00:21.063Z,7.63
2023-02-23T00:01:29.000Z,8.57
2023-02-23T00:02:30.991Z,8.30
2023-02-23T00:03:32.791Z,8.38
2023-02-23T00:04:35.512Z,8.02
2023-02-23T00:05:37.626Z,8.32
2023-02-23T00:06:39.533Z,8.30
2023-02-23T00:07:44.753Z,7.80
2023-02-23T00:08:49.854Z,8.32
2023-02-23T00:09:52.882Z,7.93
2023-02-23T00:10:58.546Z,7.72
2023-02-23T00:12:03.250Z,8.20
2023-02-23T00:13:05.045Z,8.20
2023-02-23T00:14:08.301Z,7.88
2023-02-23T00:15:10.555Z,8.82
2023-02-23T00:16:15.315Z,7.85
2023-02-23T00:17:17.657Z,7.90
2023-02-23T00:18:20.928Z,8.10
2023-02-23T00:19:24.646Z,7.53
2023-02-23T00:20:29.715Z,8.35
2023-02-23T00:21:33.020Z,8.07
2023-02-23T00:22:35.270Z,8.60
2023-02-23T00:23:38.738Z,8.00
2023-02-23T00:24:42.613Z,7.95
2023-02-23T00:25:46.262Z,8.18
2023-02-23T00:26:51.130Z,8.15
2023-02-23T00:27:52.977Z,7.78
2023-02-23T00:28:54.699Z,8.02
2023-02-23T00:29:56.467Z,8.27
2023-02-23T00:30:59.889Z,8.07
2023-02-23T00:32:01.873Z,8.02
2023-02-23T00:33:04.347Z,7.83
2023-02-23T00:34:07.703Z,8.30
2023-02-23T00:35:17.057Z,7.90
2023-02-23T00:36:18.779Z,7.75
2023-02-23T00:37:22.953Z,7.70
2023-02-23T00:38:24.711Z,7.68
2023-02-23T00:39:29.095Z,8.32
2023-02-23T00:40:31.075Z,7.60
2023-02-23T00:41:32.803Z,8.65
2023-02-23T00:42:35.721Z,8.45
2023-02-23T00:43:47.345Z,7.27
2023-02-23T00:44:49.700Z,7.90
2023-02-23T00:45:55.308Z,7.88
2023-02-23T00:46:57.027Z,7.63
2023-02-23T00:47:59.033Z,7.78
2023-02-23T00:49:00.830Z,7.75
2023-02-23T00:50:04.882Z,7.65
2023-02-23T00:51:06.611Z,7.90
2023-02-23T00:52:08.313Z,7.85
2023-02-23T00:53:11.589Z,7.70
2023-02-23T00:54:15.312Z,7.70
2023-02-23T00:55:17.181Z,7.77
2023-02-23T00:56:18.923Z,7.53
2023-02-23T00:57:20.640Z,7.13
2023-02-23T00:58:23.794Z,7.22
2023-02-23T00:59:25.505Z,7.47
2023-02-23T01:00:27.302Z,7.03
2023-02-23T01:01:29.229Z,7.38
2023-02-23T01:02:31.105Z,7.85
2023-02-23T01:03:32.896Z,7.68
2023-02-23T01:04:34.691Z,7.03
2023-02-23T01:05:36.561Z,7.80
2023-02-23T01:06:39.625Z,7.80
2023-02-23T01:07:41.407Z,7.75
2023-02-23T01:08:45.985Z,7.00
2023-02-23T01:09:47.789Z,7.05
2023-02-23T01:10:53.230Z,7.35
2023-02-23T01:11:57.179Z,7.10
2023-02-23T01:12:58.947Z,6.43
2023-02-23T01:14:01.840Z,6.72
2023-02-23T01:15:03.765Z,7.47
2023-02-23T01:16:14.346Z,7.25
2023-02-23T01:17:17.897Z,6.97
2023-02-23T01:18:20.884Z,7.80
2023-02-23T01:19:22.668Z,7.15
2023-02-23T01:20:26.660Z,7.57
2023-02-23T01:21:35.110Z,7.95
2023-02-23T01:22:36.854Z,7.97
2023-02-23T01:23:38.640Z,7.18
2023-02-23T01:24:40.533Z,7.38
2023-02-23T01:25:44.891Z,7.53
2023-02-23T01:26:46.692Z,7.37
2023-02-23T01:27:48.419Z,7.45
2023-02-23T01:28:51.603Z,7.38
2023-02-23T01:29:54.810Z,7.47
2023-02-23T01:30:56.668Z,7.85
2023-02-23T01:31:58.581Z,7.53
2023-02-23T01:33:00.939Z,7.50
2023-02-23T01:34:03.937Z,7.25
2023-02-23T01:35:08.302Z,7.53
2023-02-23T01:36:10.185Z,7.73
2023-02-23T01:37:12.149Z,7.73
2023-02-23T01:38:13.889Z,7.35
2023-02-23T01:39:18.132Z,7.57
2023-02-23T01:40:31.610Z,7.05
2023-02-23T01:41:35.064Z,7.20
2023-02-23T01:42:38.678Z,7.68
2023-02-23T01:44:00.756Z,7.55
2023-02-23T01:45:22.202Z,6.88
2023-02-23T01:46:23.987Z,7.10
2023-02-23T01:47:26.791Z,7.03
2023-02-23T01:48:34.540Z,7.60
2023-02-23T01:49:36.416Z,8.05
2023-02-23T01:51:07.728Z,7.40
2023-02-23T01:52:16.997Z,7.15
2023-02-23T01:53:21.552Z,8.27
2023-02-23T01:54:29.007Z,7.50
2023-02-23T01:55:31.021Z,7.43
2023-02-23T01:56:36.944Z,7.70
2023-02-23T01:57:41.615Z,7.65
2023-02-23T01:58:47.202Z,7.67
2023-02-23T01:59:51.041Z,7.77
2023-02-23T02:00:58.419Z,7.97
2023-02-23T02:02:00.495Z,7.57
2023-02-23T02:03:08.676Z,7.68
2023-02-23T02:04:16.577Z,7.82
2023-02-23T02:05:19.686Z,8.00
2023-02-23T02:06:28.786Z,7.30
2023-02-23T02:07:31.423Z,7.65
2023-02-23T02:08:35.337Z,8.00
2023-02-23T02:09:37.835Z,7.70
2023-02-23T02:10:39.723Z,8.17
2023-02-23T02:11:44.533Z,7.55
2023-02-23T02:12:52.381Z,7.68
2023-02-23T02:13:57.544Z,8.38
2023-02-23T02:15:00.721Z,8.27
2023-02-23T02:16:28.252Z,7.50
2023-02-23T02:17:56.413Z,7.82
2023-02-23T02:19:18.932Z,8.18
2023-02-23T02:20:32.207Z,7.53
2023-02-23T02:21:46.974Z,8.20
2023-02-23T02:23:31.308Z,7.60
2023-02-23T02:25:06.619Z,7.63
2023-02-23T02:26:29.862Z,7.45
2023-02-23T02:27:37.705Z,7.63
2023-02-23T02:28:45.212Z,7.85
2023-02-23T02:30:02.281Z,8.50
2023-02-23T02:31:26.820Z,8.38
2023-02-23T02:32:55.966Z,7.68
2023-02-23T02:34:26.914Z,7.97
2023-02-23T02:36:05.731Z,7.43
2023-02-23T02:37:33.855Z,7.70
2023-02-23T02:38:58.878Z,7.47
2023-02-23T02:40:16.336Z,7.70
2023-02-23T02:41:35.460Z,7.53
2023-02-23T02:42:46.939Z,7.35
2023-02-23T02:44:04.597Z,7.55
2023-02-23T02:45:50.713Z,7.90
2023-02-23T02:46:59.643Z,7.55
2023-02-23T02:48:14.178Z,8.32
2023-02-23T02:49:22.805Z,8.00
2023-02-23T02:50:40.291Z,8.13
2023-02-23T02:52:17.709Z,8.50
2023-02-23T02:53:40.949Z,8.13
2023-02-23T02:54:53.448Z,8.30
2023-02-23T02:55:59.757Z,8.77
2023-02-23T02:57:04.472Z,8.65
2023-02-23T02:58:08.745Z,8.63
2023-02-23T02:59:37.270Z,7.65
2023-02-23T03:01:04.835Z,7.90
2023-02-23T03:02:25.815Z,8.57
2023-02-23T03:03:54.285Z,7.87
2023-02-23T03:05:14.790Z,7.85
2023-02-23T03:06:36.871Z,8.02
2023-02-23T03:08:15.570Z,8.10
2023-02-23T03:09:44.692Z,7.80
2023-02-23T03:11:11.261Z,7.40
2023-02-23T03:12:50.799Z,7.75
2023-02-23T03:14:45.297Z,8.23
2023-02-23T03:16:16.462Z,8.25
2023-02-23T03:17:42.597Z,8.30
2023-02-23T03:19:20.548Z,7.70
2023-02-23T03:20:52.828Z,7.63
2023-02-23T03:22:24.968Z,7.65
2023-02-23T03:23:51.111Z,7.97
2023-02-23T03:25:37.664Z,7.13
2023-02-23T03:27:23.212Z,8.32
2023-02-23T03:28:53.184Z,7.90
2023-02-23T03:30:19.239Z,7.78
2023-02-23T03:32:10.573Z,7.50
2023-02-23T03:33:38.629Z,7.80
2023-02-23T03:35:28.374Z,7.70
2023-02-23T03:36:53.966Z,7.60
2023-02-23T03:38:25.557Z,7.90
2023-02-23T03:39:56.189Z,7.47
2023-02-23T03:41:19.000Z,8.10
2023-02-23T03:42:43.218Z,8.20
2023-02-23T03:44:28.645Z,7.75
2023-02-23T03:45:50.090Z,7.97
2023-02-23T03:47:11.602Z,8.00
2023-02-23T03:48:34.569Z,7.60
2023-02-23T03:49:58.127Z,7.70
2023-02-23T03:51:23.358Z,7.57
2023-02-23T03:52:54.620Z,7.75
2023-02-23T03:54:28.866Z,7.68
2023-02-23T03:55:53.523Z,8.00
2023-02-23T03:57:17.961Z,8.50
2023-02-23T03:58:47.239Z,7.95
2023-02-23T04:00:15.779Z,7.63
2023-02-23T04:01:38.357Z,7.95
2023-02-23T04:03:01.412Z,7.97
2023-02-23T04:04:23.583Z,8.00
2023-02-23T04:05:45.653Z,8.48
2023-02-23T04:07:07.496Z,7.82
2023-02-23T04:08:32.495Z,7.97
2023-02-23T04:09:53.001Z,8.40
2023-02-23T04:11:26.340Z,8.32
2023-02-23T04:13:02.127Z,8.25
2023-02-23T04:14:08.546Z,7.68
2023-02-23T04:15:22.072Z,8.05
2023-02-23T04:16:23.959Z,8.27
2023-02-23T04:17:29.055Z,8.10
2023-02-23T04:18:34.685Z,8.40
2023-02-23T04:19:36.572Z,8.18
2023-02-23T04:20:38.403Z,8.27
2023-02-23T04:21:40.202Z,8.27
2023-02-23T04:22:42.050Z,8.52
2023-02-23T04:23:43.790Z,8.43
2023-02-23T04:24:48.530Z,8.55
2023-02-23T04:25:51.267Z,7.95
2023-02-23T04:26:53.047Z,8.17
2023-02-23T04:27:54.762Z,8.47
2023-02-23T04:28:56.533Z,8.05
2023-02-23T04:29:58.559Z,7.47
2023-02-23T04:31:00.825Z,9.02
2023-02-23T04:32:02.718Z,7.47
2023-02-23T04:33:04.588Z,8.48
2023-02-23T04:34:06.394Z,8.23
2023-02-23T04:35:09.293Z,7.57
2023-02-23T04:36:11.450Z,8.45
2023-02-23T04:37:13.787Z,8.70
2023-02-23T04:38:15.604Z,8.10
2023-02-23T04:39:17.532Z,7.95
2023-02-23T04:40:19.396Z,8.32
2023-02-23T04:41:21.364Z,7.70
2023-02-23T04:42:23.208Z,7.70
2023-02-23T04:43:24.993Z,8.50
2023-02-23T04:44:27.002Z,8.77
2023-02-23T04:45:29.286Z,8.55
2023-02-23T04:46:31.043Z,8.45
2023-02-23T04:47:32.849Z,8.57
2023-02-23T04:48:34.882Z,8.03
2023-02-23T04:49:36.847Z,8.10
2023-02-23T04:50:39.647Z,8.23
2023-02-23T04:51:41.500Z,8.10
2023-02-23T04:52:43.435Z,8.15
2023-02-23T04:53:45.143Z,7.97
2023-02-23T04:54:46.904Z,8.27
2023-02-23T04:55:48.646Z,7.78
2023-02-23T04:56:50.365Z,8.50
2023-02-23T04:57:59.337Z,8.10
2023-02-23T04:59:01.175Z,8.60
2023-02-23T05:00:04.586Z,8.00
2023-02-23T05:01:09.682Z,8.27
2023-02-23T05:02:11.919Z,8.70
2023-02-23T05:03:13.820Z,8.13
2023-02-23T05:04:15.620Z,7.95
2023-02-23T05:05:17.484Z,8.40
2023-02-23T05:06:19.905Z,8.48
2023-02-23T05:07:21.914Z,8.65
2023-02-23T05:08:23.667Z,8.37
2023-02-23T05:09:25.466Z,9.27
2023-02-23T05:10:27.675Z,9.05
2023-02-23T05:11:30.028Z,8.93
2023-02-23T05:12:32.171Z,8.82
2023-02-23T05:13:34.163Z,9.85
2023-02-23T05:14:36.188Z,8.93
2023-02-23T05:15:38.643Z,8.65
2023-02-23T05:16:40.514Z,8.98
2023-02-23T05:17:43.052Z,8.18
2023-02-23T05:18:44.773Z,8.87
2023-02-23T05:19:46.554Z,8.37
2023-02-23T05:20:48.345Z,8.35
2023-02-23T05:21:50.660Z,8.90
2023-02-23T05:22:52.382Z,8.65
2023-02-23T05:23:54.175Z,8.80
2023-02-23T05:24:57.430Z,9.35
2023-02-23T05:26:05.837Z,8.85
2023-02-23T05:27:09.671Z,8.70
2023-02-23T05:28:11.432Z,9.13
2023-02-23T05:29:13.412Z,8.50
2023-02-23T05:30:15.511Z,9.20
2023-02-23T05:31:17.656Z,9.00
2023-02-23T05:32:19.746Z,8.90
2023-02-23T05:33:21.876Z,9.82
2023-02-23T05:34:24.089Z,9.18
2023-02-23T05:35:26.344Z,9.00
2023-02-23T05:36:28.230Z,8.75
2023-02-23T05:37:30.365Z,8.90
2023-02-23T05:38:32.182Z,9.02
2023-02-23T05:39:33.938Z,9.03
2023-02-23T05:40:36.620Z,8.82
2023-02-23T05:41:38.545Z,8.23
2023-02-23T05:42:40.325Z,8.95
2023-02-23T05:43:42.419Z,9.27
2023-02-23T05:44:44.261Z,9.52
2023-02-23T05:45:46.142Z,8.88
2023-02-23T05:46:47.883Z,9.10
2023-02-23T05:47:49.617Z,9.10
2023-02-23T05:48:55.224Z,8.50
2023-02-23T05:49:57.088Z,9.40
2023-02-23T05:51:03.141Z,9.47
2023-02-23T05:52:05.165Z,8.48
2023-02-23T05:53:06.972Z,9.35
2023-02-23T05:54:10.280Z,10.02
2023-02-23T05:55:12.444Z,9.05
2023-02-23T05:56:20.924Z,9.43
2023-02-23T05:57:22.696Z,8.93
2023-02-23T05:58:24.857Z,9.05
2023-02-23T05:59:27.154Z,9.35
2023-02-23T06:00:29.015Z,9.13
2023-02-23T06:01:31.119Z,8.90
2023-02-23T06:02:33.603Z,9.02
2023-02-23T06:03:35.659Z,8.77
2023-02-23T06:04:37.536Z,9.18
2023-02-23T06:05:39.258Z,8.70
2023-02-23T06:06:41.085Z,9.23
2023-02-23T06:07:42.882Z,9.38
2023-02-23T06:08:45.243Z,8.75
2023-02-23T06:09:47.019Z,9.20
2023-02-23T06:10:48.778Z,9.10
2023-02-23T06:11:50.601Z,9.00
2023-02-23T06:12:52.346Z,9.45
2023-02-23T06:13:54.094Z,9.25
2023-02-23T06:14:56.379Z,9.30
2023-02-23T06:15:59.589Z,9.93
2023-02-23T06:17:01.592Z,9.15
2023-02-23T06:18:04.269Z,9.60
2023-02-23T06:19:06.097Z,9.10
2023-02-23T06:20:08.369Z,9.65
2023-02-23T06:21:10.312Z,9.43
2023-02-23T06:22:12.490Z,9.53
2023-02-23T06:23:15.665Z,9.27
2023-02-23T06:24:17.803Z,9.18
2023-02-23T06:25:19.555Z,9.98
2023-02-23T06:26:21.318Z,9.75
2023-02-23T06:27:23.079Z,9.52
2023-02-23T06:28:25.068Z,9.43
2023-02-23T06:29:26.909Z,9.95
2023-02-23T06:30:28.730Z,9.90
2023-02-23T06:31:30.789Z,9.23
2023-02-23T06:32:32.648Z,10.30
2023-02-23T06:33:34.376Z,10.13
2023-02-23T06:34:36.404Z,9.68
2023-02-23T06:35:39.020Z,9.20
2023-02-23T06:36:40.762Z,9.57
2023-02-23T06:37:43.393Z,9.60
2023-02-23T06:38:45.701Z,9.05
2023-02-23T06:39:47.834Z,9.68
2023-02-23T06:40:49.814Z,10.50
2023-02-23T06:41:51.541Z,9.17
2023-02-23T06:42:53.378Z,9.97
2023-02-23T06:43:55.563Z,10.15
2023-02-23T06:44:57.334Z,9.77
2023-02-23T06:45:59.075Z,10.10
2023-02-23T06:47:00.847Z,9.90
2023-02-23T06:48:02.650Z,9.77
2023-02-23T06:49:04.616Z,10.60
2023-02-23T06:50:08.052Z,10.00
2023-02-23T06:51:10.005Z,9.98
2023-02-23T06:52:13.575Z,9.43
2023-02-23T06:53:15.309Z,10.50
2023-02-23T06:54:17.634Z,9.65
2023-02-23T06:55:19.503Z,10.02
2023-02-23T06:56:21.365Z,10.15
2023-02-23T06:57:23.187Z,9.70
2023-02-23T06:58:25.167Z,10.35
2023-02-23T06:59:26.902Z,10.55
2023-02-23T07:00:30.528Z,9.57
2023-02-23T07:01:32.339Z,9.98
2023-02-23T07:02:36.458Z,9.83
2023-02-23T07:03:38.423Z,9.40
2023-02-23T07:04:40.173Z,9.75
2023-02-23T07:05:42.007Z,10.55
2023-02-23T07:06:43.907Z,10.70
2023-02-23T07:07:46.545Z,10.35
2023-02-23T07:08:48.501Z,10.10
2023-02-23T07:09:50.364Z,9.38
2023-02-23T07:10:52.198Z,9.85
2023-02-23T07:11:53.916Z,9.77
2023-02-23T07:12:55.677Z,9.93
2023-02-23T07:14:01.528Z,9.33
2023-02-23T07:15:03.539Z,10.00
2023-02-23T07:16:06.665Z,10.05
2023-02-23T07:17:09.007Z,11.13
2023-02-23T07:18:11.779Z,10.07
2023-02-23T07:19:13.587Z,10.25
2023-02-23T07:20:16.163Z,11.40
2023-02-23T07:21:18.085Z,10.48
2023-02-23T07:22:20.097Z,9.85
2023-02-23T07:23:22.394Z,9.93
2023-02-23T07:24:24.118Z,10.10
2023-02-23T07:25:26.529Z,10.35
2023-02-23T07:26:28.307Z,9.70
2023-02-23T07:27:30.007Z,10.10
2023-02-23T07:28:31.732Z,10.13
2023-02-23T07:29:33.471Z,9.50
2023-02-23T07:30:35.274Z,9.68
2023-02-23T07:31:37.761Z,10.25
2023-02-23T07:32:39.697Z,10.00
2023-02-23T07:33:41.739Z,10.13
2023-02-23T07:34:43.476Z,10.00
2023-02-23T07:35:45.275Z,11.70
2023-02-23T07:36:47.171Z,10.13
2023-02-23T07:37:48.974Z,10.43
2023-02-23T07:38:51.197Z,9.85
2023-02-23T07:39:52.955Z,10.88
2023-02-23T07:40:54.908Z,10.02
2023-02-23T07:41:57.290Z,10.07
2023-02-23T07:42:59.768Z,9.85
2023-02-23T07:44:01.778Z,10.17
2023-02-23T07:45:04.136Z,10.10
2023-02-23T07:46:06.112Z,10.25
2023-02-23T07:47:07.894Z,9.68
2023-02-23T07:48:10.040Z,10.38
2023-02-23T07:49:12.095Z,10.13
2023-02-23T07:50:14.001Z,10.00
2023-02-23T07:51:16.948Z,10.75
2023-02-23T07:52:19.068Z,10.55
2023-02-23T07:53:21.128Z,10.25
2023-02-23T07:54:22.951Z,10.27
2023-02-23T07:55:24.715Z,10.20
2023-02-23T07:56:27.440Z,11.38
2023-02-23T07:57:29.249Z,11.20
2023-02-23T07:58:31.624Z,10.52
2023-02-23T07:59:33.440Z,11.35
2023-02-23T08:00:36.952Z,10.75
2023-02-23T08:01:38.668Z,10.45
2023-02-23T08:02:40.701Z,10.25
2023-02-23T08:03:49.345Z,10.38
2023-02-23T08:04:54.048Z,10.43
2023-02-23T08:05:55.986Z,10.33
2023-02-23T08:06:57.727Z,10.90
2023-02-23T08:07:59.654Z,10.80
2023-02-23T08:09:03.166Z,9.85
2023-02-23T08:10:05.350Z,10.93
2023-02-23T08:11:07.110Z,10.23
2023-02-23T08:12:10.448Z,10.48
2023-02-23T08:13:12.216Z,11.38
2023-02-23T08:14:14.101Z,10.00
2023-02-23T08:15:15.977Z,10.57
2023-02-23T08:16:18.541Z,11.07
2023-02-23T08:17:20.543Z,11.07
2023-02-23T08:18:22.301Z,11.13
2023-02-23T08:19:24.115Z,11.05
2023-02-23T08:20:27.665Z,10.45
2023-02-23T08:21:29.900Z,11.57
2023-02-23T08:22:40.510Z,10.38
2023-02-23T08:23:49.169Z,10.77
2023-02-23T08:24:50.967Z,11.60
2023-02-23T08:25:54.738Z,11.23
2023-02-23T08:26:57.916Z,10.10
2023-02-23T08:28:04.789Z,10.60
2023-02-23T08:29:06.925Z,10.93
2023-02-23T08:30:09.856Z,10.95
2023-02-23T08:31:13.232Z,10.88
2023-02-23T08:32:15.223Z,11.13
2023-02-23T08:33:17.170Z,10.65
2023-02-23T08:34:19.558Z,10.88
2023-02-23T08:35:21.710Z,11.07
2023-02-23T08:36:23.484Z,10.38
2023-02-23T08:37:25.238Z,10.80
2023-02-23T08:38:27.129Z,11.68
2023-02-23T08:39:28.888Z,10.45
2023-02-23T08:40:30.618Z,10.60
2023-02-23T08:41:32.354Z,11.25
2023-02-23T08:42:34.160Z,11.25
2023-02-23T08:43:35.921Z,11.15
2023-02-23T08:44:37.650Z,11.15
2023-02-23T08:45:39.598Z,11.52
2023-02-23T08:46:41.411Z,10.70
2023-02-23T08:47:43.261Z,11.60
2023-02-23T08:48:45.043Z,12.00
2023-02-23T08:49:46.789Z,11.15
2023-02-23T08:50:49.851Z,11.23
2023-02-23T08:51:52.175Z,11.60
2023-02-23T08:52:54.375Z,11.38
2023-02-23T08:53:57.226Z,11.70
2023-02-23T08:54:59.016Z,11.00
2023-02-23T08:56:03.741Z,11.52
2023-02-23T08:57:05.490Z,10.95
2023-02-23T08:58:11.397Z,10.40
2023-02-23T08:59:14.372Z,11.63
2023-02-23T09:00:16.917Z,11.45
2023-02-23T09:01:22.183Z,11.48
2023-02-23T09:02:24.724Z,11.25
2023-02-23T09:03:30.179Z,10.70
2023-02-23T09:04:35.106Z,12.07
2023-02-23T09:05:38.482Z,11.48
2023-02-23T09:06:40.976Z,11.43
2023-02-23T09:07:46.333Z,11.30
2023-02-23T09:08:48.495Z,11.10
2023-02-23T09:09:56.654Z,11.15
2023-02-23T09:10:58.466Z,11.20
2023-02-23T09:12:00.771Z,12.10
2023-02-23T09:13:03.008Z,10.75
2023-02-23T09:14:04.804Z,11.20
2023-02-23T09:15:07.249Z,11.23
2023-02-23T09:16:09.188Z,11.43
2023-02-23T09:17:11.490Z,10.93
2023-02-23T09:18:14.900Z,10.98
2023-02-23T09:19:16.900Z,11.20
2023-02-23T09:20:18.959Z,11.65
2023-02-23T09:21:22.346Z,10.43
2023-02-23T09:22:24.088Z,11.23
2023-02-23T09:23:29.414Z,10.30
2023-02-23T09:24:32.581Z,11.18
2023-02-23T09:25:34.441Z,10.77
2023-02-23T09:26:40.168Z,10.57
2023-02-23T09:27:41.905Z,10.65
2023-02-23T09:28:43.644Z,10.88
2023-02-23T09:29:45.500Z,10.67
2023-02-23T09:30:48.413Z,11.80
2023-02-23T09:31:52.856Z,11.15
2023-02-23T09:32:56.256Z,11.23
2023-02-23T09:34:00.276Z,10.75
2023-02-23T09:35:02.100Z,10.93
2023-02-23T09:36:12.903Z,11.23
2023-02-23T09:37:14.841Z,11.23
2023-02-23T09:38:16.547Z,11.02
2023-02-23T09:39:26.368Z,11.10
2023-02-23T09:40:47.111Z,11.17
2023-02-23T09:42:28.214Z,10.63
2023-02-23T09:43:55.486Z,10.95
2023-02-23T09:45:19.726Z,9.63
2023-02-23T09:46:32.404Z,9.90
2023-02-23T09:47:41.537Z,10.27
2023-02-23T09:48:43.998Z,10.35
2023-02-23T09:49:48.170Z,10.50
2023-02-23T09:50:55.495Z,10.05
2023-02-23T09:52:01.815Z,10.65
2023-02-23T09:53:34.114Z,10.50
2023-02-23T09:54:36.843Z,10.95
2023-02-23T09:55:41.552Z,10.52
2023-02-23T09:56:48.611Z,11.05
2023-02-23T09:57:50.631Z,10.13
2023-02-23T09:58:53.343Z,9.60
2023-02-23T09:59:55.094Z,9.95
2023-02-23T10:01:20.995Z,10.18
2023-02-23T10:02:39.713Z,9.70
2023-02-23T10:04:07.718Z,10.18
2023-02-23T10:05:12.949Z,9.33
2023-02-23T10:06:17.531Z,9.95
2023-02-23T10:07:47.099Z,9.75
2023-02-23T10:08:54.591Z,10.20
2023-02-23T10:10:18.147Z,10.65
2023-02-23T10:11:49.579Z,9.65
2023-02-23T10:13:18.307Z,9.27
2023-02-23T10:14:19.989Z,9.23
2023-02-23T10:15:43.138Z,9.57
2023-02-23T10:16:59.685Z,9.02
2023-02-23T10:18:07.438Z,8.77
2023-02-23T10:19:20.654Z,9.40
2023-02-23T10:20:40.269Z,9.20
2023-02-23T10:21:54.451Z,9.88
2023-02-23T10:23:03.754Z,9.63
2023-02-23T10:24:31.133Z,8.77
2023-02-23T10:25:38.528Z,9.23
2023-02-23T10:26:54.374Z,9.32
2023-02-23T10:27:58.395Z,8.68
2023-02-23T10:29:00.492Z,9.80
2023-02-23T10:30:04.820Z,9.13
2023-02-23T10:31:33.077Z,8.90
2023-02-23T10:32:48.137Z,9.10
2023-02-23T10:33:52.644Z,8.88
2023-02-23T10:34:56.754Z,9.23
2023-02-23T10:36:13.770Z,8.50
2023-02-23T10:37:17.936Z,8.88
2023-02-23T10:38:19.839Z,8.48
2023-02-23T10:39:21.798Z,8.85
2023-02-23T10:40:27.642Z,8.25
2023-02-23T10:41:29.552Z,9.20
2023-02-23T10:42:32.036Z,8.65
2023-02-23T10:43:33.900Z,9.10
2023-02-23T10:44:35.640Z,8.75
2023-02-23T10:45:44.129Z,9.85
2023-02-23T10:46:49.649Z,9.05
2023-02-23T10:47:53.598Z,8.70
2023-02-23T10:48:57.018Z,8.18
2023-02-23T10:49:59.072Z,9.60
2023-02-23T10:51:05.908Z,8.90
2023-02-23T10:52:13.583Z,8.33
2023-02-23T10:53:26.647Z,8.80
2023-02-23T10:54:34.658Z,8.02
2023-02-23T10:55:36.399Z,8.73
2023-02-23T10:56:46.363Z,8.77
2023-02-23T10:57:48.285Z,8.57
2023-02-23T10:58:55.665Z,8.02
2023-02-23T11:00:15.943Z,8.93
2023-02-23T11:01:46.404Z,8.45
2023-02-23T11:02:58.578Z,8.02
2023-02-23T11:04:19.083Z,7.97
2023-02-23T11:05:30.553Z,8.55
2023-02-23T11:06:36.125Z,7.72
2023-02-23T11:07:39.328Z,8.90
2023-02-23T11:08:41.609Z,8.15
2023-02-23T11:09:47.456Z,7.95
2023-02-23T11:11:05.753Z,7.93
2023-02-23T11:12:39.583Z,8.02
2023-02-23T11:13:42.445Z,8.27
2023-02-23T11:14:44.258Z,8.18
2023-02-23T11:15:50.603Z,7.97
2023-02-23T11:16:53.118Z,8.27
2023-02-23T11:18:03.092Z,8.02
2023-02-23T11:19:07.326Z,8.25
2023-02-23T11:20:18.046Z,8.07
2023-02-23T11:21:39.887Z,8.30
2023-02-23T11:22:42.384Z,7.90
2023-02-23T11:23:44.719Z,8.30
2023-02-23T11:24:46.724Z,7.80
2023-02-23T11:25:51.459Z,7.97
2023-02-23T11:26:57.976Z,8.20
2023-02-23T11:28:00.181Z,7.95
2023-02-23T11:29:46.724Z,8.63
2023-02-23T11:30:49.519Z,7.20
2023-02-23T11:31:56.385Z,7.60
2023-02-23T11:33:10.774Z,7.32
2023-02-23T11:34:35.495Z,7.38
2023-02-23T11:35:38.423Z,7.72
2023-02-23T11:36:40.173Z,7.88
2023-02-23T11:37:42.050Z,7.30
2023-02-23T11:38:46.317Z,7.80
2023-02-23T11:39:59.274Z,7.45
2023-02-23T11:41:04.252Z,7.68
2023-02-23T11:42:16.298Z,7.47
2023-02-23T11:43:18.382Z,7.68
2023-02-23T11:44:23.325Z,7.80
2023-02-23T11:45:29.140Z,7.53
2023-02-23T11:46:35.173Z,7.88
2023-02-23T11:47:41.888Z,8.10
2023-02-23T11:48:54.064Z,6.90
2023-02-23T11:49:56.229Z,7.00
2023-02-23T11:50:58.812Z,7.70
2023-02-23T11:52:01.093Z,7.38
2023-02-23T11:53:14.543Z,7.80
2023-02-23T11:54:38.928Z,8.00
2023-02-23T11:55:51.017Z,7.78
2023-02-23T11:58:48.192Z,7.53
2023-02-23T11:59:56.425Z,6.95
2023-02-23T12:01:04.537Z,7.63
2023-02-23T12:02:25.147Z,7.60
2023-02-23T12:03:30.687Z,7.28
2023-02-23T12:04:39.048Z,6.68
2023-02-23T12:05:41.000Z,7.32
2023-02-23T12:06:42.792Z,7.07
2023-02-23T12:08:01.332Z,7.75
2023-02-23T12:09:13.169Z,8.45
2023-02-23T12:10:47.168Z,6.35
2023-02-23T12:12:00.578Z,7.10
2023-02-23T12:13:08.066Z,7.55
2023-02-23T12:14:29.491Z,6.60
2023-02-23T12:15:31.189Z,6.85
2023-02-23T12:16:40.883Z,6.72
2023-02-23T12:17:53.597Z,6.63
2023-02-23T12:19:16.312Z,6.50
2023-02-23T12:20:26.858Z,7.47
2023-02-23T12:21:38.123Z,6.50
2023-02-23T12:22:45.065Z,7.30
2023-02-23T12:23:50.441Z,7.10
2023-02-23T12:24:59.324Z,6.68
2023-02-23T12:26:09.501Z,6.90
2023-02-23T12:27:18.115Z,6.97
2023-02-23T12:28:45.661Z,6.97
2023-02-23T12:30:06.284Z,6.80
2023-02-23T12:31:36.439Z,7.10
2023-02-23T12:32:51.369Z,7.05
2023-02-23T12:34:02.635Z,7.00
2023-02-23T12:35:08.937Z,7.30
2023-02-23T12:36:36.460Z,6.95
2023-02-23T12:37:42.378Z,7.07
2023-02-23T12:38:59.633Z,6.87
2023-02-23T12:40:19.314Z,7.30
2023-02-23T12:41:36.217Z,7.03
2023-02-23T12:42:50.918Z,7.47
2023-02-23T12:44:31.291Z,6.63
2023-02-23T12:45:42.980Z,6.95
2023-02-23T12:46:52.013Z,6.70
2023-02-23T12:48:06.482Z,6.60
2023-02-23T12:49:25.350Z,7.25
2023-02-23T12:50:29.864Z,6.68
2023-02-23T12:51:43.221Z,6.97
2023-02-23T12:53:12.362Z,7.15
2023-02-23T12:54:16.432Z,6.25
2023-02-23T12:55:24.411Z,6.70
2023-02-23T12:56:53.494Z,6.38
2023-02-23T12:58:05.938Z,6.70
2023-02-23T12:59:46.365Z,7.20
2023-02-23T13:01:12.692Z,6.55
2023-02-23T13:02:23.415Z,6.47
2023-02-23T13:03:47.700Z,6.53
2023-02-23T13:04:49.357Z,6.27
2023-02-23T13:06:02.255Z,5.93
2023-02-23T13:07:22.795Z,6.40
2023-02-23T13:09:16.512Z,6.35
2023-02-23T13:10:20.967Z,6.50
2023-02-23T13:11:51.456Z,6.93
2023-02-23T13:13:33.851Z,6.07
2023-02-23T13:14:52.863Z,5.90
2023-02-23T13:16:19.526Z,5.82
2023-02-23T13:17:38.568Z,5.55
2023-02-23T13:18:59.315Z,5.90
2023-02-23T13:20:12.155Z,5.70
2023-02-23T13:21:48.665Z,5.65
2023-02-23T13:22:55.333Z,5.47
2023-02-23T13:24:18.980Z,5.38
2023-02-23T13:25:36.880Z,5.10
2023-02-23T13:26:53.637Z,5.30
2023-02-23T13:28:00.607Z,5.35
2023-02-23T13:29:20.489Z,5.60
2023-02-23T13:30:22.601Z,5.25
2023-02-23T13:31:26.164Z,4.90
2023-02-23T13:32:32.503Z,5.13
2023-02-23T13:33:44.070Z,5.03
2023-02-23T13:34:52.426Z,4.93
2023-02-23T13:35:55.014Z,5.18
2023-02-23T13:36:58.870Z,5.00
2023-02-23T13:38:26.333Z,4.90
2023-02-23T13:39:47.685Z,5.28
2023-02-23T13:41:24.109Z,4.70
2023-02-23T13:42:48.425Z,4.72
2023-02-23T13:44:01.550Z,4.83
2023-02-23T13:45:23.088Z,4.55
2023-02-23T13:46:33.462Z,5.30
2023-02-23T13:47:50.160Z,5.22
2023-02-23T13:49:05.196Z,5.15
2023-02-23T13:50:28.567Z,5.05
2023-02-23T13:51:48.012Z,5.10
2023-02-23T13:52:55.553Z,4.90
2023-02-23T13:54:00.130Z,4.97
2023-02-23T13:55:05.451Z,4.65
2023-02-23T13:56:17.970Z,5.23
2023-02-23T13:57:23.416Z,4.70
2023-02-23T13:58:30.776Z,5.22
2023-02-23T13:59:41.693Z,5.30
2023-02-23T14:00:44.610Z,5.00
2023-02-23T14:01:49.303Z,5.05
2023-02-23T14:02:51.425Z,4.88
2023-02-23T14:04:01.748Z,4.80
2023-02-23T14:05:19.027Z,5.25
2023-02-23T14:06:23.742Z,5.78
2023-02-23T14:07:31.382Z,5.23
2023-02-23T14:08:37.460Z,5.57
2023-02-23T14:09:50.650Z,5.70
2023-02-23T14:10:55.814Z,5.63
2023-02-23T14:12:17.032Z,6.00
2023-02-23T14:13:19.669Z,6.60
2023-02-23T14:14:33.362Z,6.28
2023-02-23T14:15:35.029Z,6.57
2023-02-23T14:16:37.184Z,7.28
2023-02-23T14:17:40.466Z,7.75
2023-02-23T14:19:03.453Z,7.70
2023-02-23T14:20:13.410Z,7.60
2023-02-23T14:21:22.305Z,7.97
2023-02-23T14:22:24.139Z,8.50
2023-02-23T14:23:32.587Z,8.55
2023-02-23T14:24:34.371Z,8.00
2023-02-23T14:25:36.552Z,8.13
2023-02-23T14:26:43.697Z,9.27
2023-02-23T14:27:45.799Z,9.52
2023-02-23T14:29:09.481Z,9.45
2023-02-23T14:30:11.187Z,10.37
2023-02-23T14:31:12.979Z,10.10
2023-02-23T14:32:14.862Z,9.98
2023-02-23T14:33:35.200Z,10.18
2023-02-23T14:35:03.051Z,10.30
2023-02-23T14:36:23.607Z,10.50
2023-02-23T14:37:39.704Z,10.32
2023-02-23T14:38:47.947Z,10.50
2023-02-23T14:39:51.911Z,11.20
2023-02-23T14:40:55.384Z,10.38
2023-02-23T14:41:59.885Z,10.70
2023-02-23T14:43:03.513Z,11.27
2023-02-23T14:44:28.190Z,11.15
2023-02-23T14:45:38.825Z,10.82
2023-02-23T14:47:20.705Z,10.50
2023-02-23T14:48:23.482Z,10.95
2023-02-23T14:49:32.505Z,10.65
2023-02-23T14:50:36.570Z,10.68
2023-02-23T14:51:42.621Z,10.88
2023-02-23T14:52:44.781Z,11.18
2023-02-23T14:53:46.510Z,10.90
2023-02-23T14:54:48.365Z,10.93
2023-02-23T14:55:50.206Z,11.32
2023-02-23T14:56:58.243Z,11.43
2023-02-23T14:58:01.674Z,11.32
2023-02-23T14:59:07.499Z,11.82
2023-02-23T15:00:15.191Z,10.93
2023-02-23T15:01:40.120Z,11.52
2023-02-23T15:03:01.129Z,11.38
2023-02-23T15:04:09.119Z,11.43
2023-02-23T15:05:18.579Z,10.97